sensor_id;sensor_type;location;lat;lon;timestamp;pressure;altitude;pressure_sealevel;temperature;humidity
36726;BME280;44936;52.086;5.150;2022-11-20T01:07:33;101897.03;;;-1.62;100.00
36726;BME280;44936;52.086;5.150;2022-11-20T01:10:29;101904.31;;;-1.44;100.00
36726;BME280;44936;52.086;5.150;2022-11-20T01:12:55;101878.59;;;-1.44;100.00
36726;BME280;44936;52.086;5.150;2022-11-20T01:15:54;101860.13;;;-1.25;100.00
36726;BME280;44936;52.086;5.150;2022-11-20T01:18:23;101847.53;;;-1.47;100.00
36726;BME280;44936;52.086;5.150;2022-11-20T01:27:33;101740.44;;;-1.58;100.00
36726;BME280;44936;52.086;5.150;2022-11-20T01:31:54;101789.16;;;-1.21;100.00
36726;BME280;44936;52.086;5.150;2022-11-20T01:41:05;101727.72;;;-1.68;100.00
36726;BME280;44936;52.086;5.150;2022-11-20T01:50:43;101731.88;;;-1.83;100.00
36726;BME280;44936;52.086;5.150;2022-11-20T01:53:42;101741.84;;;-1.88;100.00
36726;BME280;44936;52.086;5.150;2022-11-20T02:13:58;101775.00;;;-1.41;100.00
36726;BME280;44936;52.086;5.150;2022-11-20T02:16:35;101698.56;;;-1.82;100.00
36726;BME280;44936;52.086;5.150;2022-11-20T02:33:20;101735.59;;;-1.53;100.00
36726;BME280;44936;52.086;5.150;2022-11-20T02:39:32;101686.06;;;-1.89;100.00
36726;BME280;44936;52.086;5.150;2022-11-20T02:42:23;101754.91;;;-1.47;100.00
36726;BME280;44936;52.086;5.150;2022-11-20T02:45:32;101750.53;;;-1.48;100.00
36726;BME280;44936;52.086;5.150;2022-11-20T02:48:00;101686.16;;;-2.01;100.00
36726;BME280;44936;52.086;5.150;2022-11-20T02:50:52;101698.41;;;-1.96;100.00
36726;BME280;44936;52.086;5.150;2022-11-20T02:53:21;101700.50;;;-1.91;100.00
36726;BME280;44936;52.086;5.150;2022-11-20T02:56:12;101714.34;;;-2.02;100.00
36726;BME280;44936;52.086;5.150;2022-11-20T02:59:03;101706.91;;;-1.97;100.00
36726;BME280;44936;52.086;5.150;2022-11-20T03:05:16;101720.13;;;-2.05;100.00
36726;BME280;44936;52.086;5.150;2022-11-20T03:08:02;101759.03;;;-1.62;100.00
36726;BME280;44936;52.086;5.150;2022-11-20T03:10:28;101693.19;;;-1.98;100.00
36726;BME280;44936;52.086;5.150;2022-11-20T03:12:54;101703.63;;;-2.08;100.00
36726;BME280;44936;52.086;5.150;2022-11-20T03:16:21;101711.88;;;-2.01;100.00
36726;BME280;44936;52.086;5.150;2022-11-20T03:19:29;101723.59;;;-2.04;100.00
36726;BME280;44936;52.086;5.150;2022-11-20T03:22:35;101755.09;;;-1.57;100.00
36726;BME280;44936;52.086;5.150;2022-11-20T03:25:04;101696.56;;;-1.86;100.00
36726;BME280;44936;52.086;5.150;2022-11-20T03:28:15;101746.19;;;-1.49;100.00
36726;BME280;44936;52.086;5.150;2022-11-20T03:30:40;101665.88;;;-2.09;100.00
36726;BME280;44936;52.086;5.150;2022-11-20T03:33:31;101672.31;;;-1.89;100.00
36726;BME280;44936;52.086;5.150;2022-11-20T03:36:03;101700.16;;;-1.57;100.00
36726;BME280;44936;52.086;5.150;2022-11-20T03:38:33;101715.50;;;-1.46;100.00
36726;BME280;44936;52.086;5.150;2022-11-20T03:41:30;101704.50;;;-1.69;100.00
36726;BME280;44936;52.086;5.150;2022-11-20T03:44:35;101648.59;;;-1.98;100.00
36726;BME280;44936;52.086;5.150;2022-11-20T03:47:01;101659.38;;;-1.91;100.00
36726;BME280;44936;52.086;5.150;2022-11-20T03:49:26;101720.84;;;-1.43;100.00
36726;BME280;44936;52.086;5.150;2022-11-20T03:51:52;101649.38;;;-1.86;100.00
36726;BME280;44936;52.086;5.150;2022-11-20T03:54:17;101645.22;;;-2.11;100.00
36726;BME280;44936;52.086;5.150;2022-11-20T03:56:44;101674.28;;;-1.98;100.00
36726;BME280;44936;52.086;5.150;2022-11-20T03:59:11;101677.78;;;-1.85;100.00
36726;BME280;44936;52.086;5.150;2022-11-20T04:01:39;101671.75;;;-1.72;100.00
36726;BME280;44936;52.086;5.150;2022-11-20T04:04:25;101701.13;;;-1.82;100.00
36726;BME280;44936;52.086;5.150;2022-11-20T04:06:50;101689.53;;;-1.88;100.00
36726;BME280;44936;52.086;5.150;2022-11-20T04:09:45;101643.81;;;-2.06;100.00
36726;BME280;44936;52.086;5.150;2022-11-20T04:12:11;101682.09;;;-1.97;100.00
36726;BME280;44936;52.086;5.150;2022-11-20T04:14:36;101651.72;;;-2.16;100.00
36726;BME280;44936;52.086;5.150;2022-11-20T04:17:03;101716.34;;;-1.85;100.00
36726;BME280;44936;52.086;5.150;2022-11-20T04:19:31;101662.72;;;-2.30;100.00
36726;BME280;44936;52.086;5.150;2022-11-20T04:21:58;101716.38;;;-2.10;100.00
36726;BME280;44936;52.086;5.150;2022-11-20T04:24:23;101669.97;;;-2.24;100.00
36726;BME280;44936;52.086;5.150;2022-11-20T04:26:48;101732.06;;;-1.80;100.00
36726;BME280;44936;52.086;5.150;2022-11-20T04:29:14;101702.38;;;-2.02;100.00
36726;BME280;44936;52.086;5.150;2022-11-20T04:31:42;101686.78;;;-1.91;100.00
36726;BME280;44936;52.086;5.150;2022-11-20T04:34:11;101688.53;;;-1.90;100.00
36726;BME280;44936;52.086;5.150;2022-11-20T04:36:37;101691.56;;;-2.09;100.00
36726;BME280;44936;52.086;5.150;2022-11-20T04:39:05;101695.78;;;-2.23;100.00
36726;BME280;44936;52.086;5.150;2022-11-20T04:41:34;101723.69;;;-2.16;100.00
36726;BME280;44936;52.086;5.150;2022-11-20T04:44:15;101741.31;;;-1.95;100.00
36726;BME280;44936;52.086;5.150;2022-11-20T04:46:41;101735.88;;;-1.75;100.00
36726;BME280;44936;52.086;5.150;2022-11-20T04:49:13;101690.38;;;-2.14;100.00
36726;BME280;44936;52.086;5.150;2022-11-20T04:51:39;101686.78;;;-1.91;100.00
36726;BME280;44936;52.086;5.150;2022-11-20T04:54:05;101649.56;;;-2.10;100.00
36726;BME280;44936;52.086;5.150;2022-11-20T04:56:30;101603.63;;;-2.30;100.00
36726;BME280;44936;52.086;5.150;2022-11-20T04:59:12;101646.00;;;-2.12;100.00
36726;BME280;44936;52.086;5.150;2022-11-20T05:01:40;101586.19;;;-2.47;100.00
36726;BME280;44936;52.086;5.150;2022-11-20T05:04:05;101660.56;;;-1.99;100.00
36726;BME280;44936;52.086;5.150;2022-11-20T05:06:31;101664.00;;;-1.98;100.00
36726;BME280;44936;52.086;5.150;2022-11-20T05:08:57;101623.72;;;-2.24;100.00
36726;BME280;44936;52.086;5.150;2022-11-20T05:11:23;101604.31;;;-2.46;100.00
36726;BME280;44936;52.086;5.150;2022-11-20T05:13:49;101661.38;;;-2.25;100.00
36726;BME280;44936;52.086;5.150;2022-11-20T05:16:19;101673.25;;;-2.14;100.00
36726;BME280;44936;52.086;5.150;2022-11-20T05:18:45;101616.66;;;-2.40;100.00
36726;BME280;44936;52.086;5.150;2022-11-20T05:21:11;101660.16;;;-2.30;100.00
36726;BME280;44936;52.086;5.150;2022-11-20T05:23:45;101619.66;;;-2.59;100.00
36726;BME280;44936;52.086;5.150;2022-11-20T05:26:22;101677.78;;;-2.23;100.00
36726;BME280;44936;52.086;5.150;2022-11-20T05:28:49;101621.63;;;-2.30;100.00
36726;BME280;44936;52.086;5.150;2022-11-20T05:31:19;101679.63;;;-1.95;100.00
36726;BME280;44936;52.086;5.150;2022-11-20T05:33:45;101661.25;;;-1.88;100.00
36726;BME280;44936;52.086;5.150;2022-11-20T05:36:13;101609.88;;;-2.26;100.00
36726;BME280;44936;52.086;5.150;2022-11-20T05:38:39;101591.06;;;-2.39;100.00
36726;BME280;44936;52.086;5.150;2022-11-20T05:41:13;101669.09;;;-2.25;100.00
36726;BME280;44936;52.086;5.150;2022-11-20T05:43:41;101644.25;;;-2.38;100.00
36726;BME280;44936;52.086;5.150;2022-11-20T05:46:08;101661.97;;;-2.54;100.00
36726;BME280;44936;52.086;5.150;2022-11-20T05:48:36;101732.53;;;-2.24;100.00
36726;BME280;44936;52.086;5.150;2022-11-20T05:51:03;101674.56;;;-2.45;100.00
36726;BME280;44936;52.086;5.150;2022-11-20T05:53:29;101729.81;;;-2.14;100.00
36726;BME280;44936;52.086;5.150;2022-11-20T05:56:04;101692.00;;;-2.28;100.00
36726;BME280;44936;52.086;5.150;2022-11-20T05:58:33;101715.28;;;-2.13;100.00
36726;BME280;44936;52.086;5.150;2022-11-20T06:01:21;101681.13;;;-2.37;100.00
36726;BME280;44936;52.086;5.150;2022-11-20T06:03:48;101680.88;;;-2.15;100.00
36726;BME280;44936;52.086;5.150;2022-11-20T06:06:16;101722.59;;;-2.19;100.00
36726;BME280;44936;52.086;5.150;2022-11-20T06:08:42;101708.88;;;-2.32;100.00
36726;BME280;44936;52.086;5.150;2022-11-20T06:11:10;101733.22;;;-2.26;100.00
36726;BME280;44936;52.086;5.150;2022-11-20T06:13:36;101698.03;;;-2.52;100.00
36726;BME280;44936;52.086;5.150;2022-11-20T06:16:02;101740.69;;;-2.18;100.00
36726;BME280;44936;52.086;5.150;2022-11-20T06:18:29;101747.22;;;-2.10;100.00
36726;BME280;44936;52.086;5.150;2022-11-20T06:21:10;101725.09;;;-2.08;100.00
36726;BME280;44936;52.086;5.150;2022-11-20T06:23:36;101731.22;;;-2.06;100.00
36726;BME280;44936;52.086;5.150;2022-11-20T06:26:07;101672.44;;;-2.26;100.00
36726;BME280;44936;52.086;5.150;2022-11-20T06:28:36;101651.72;;;-2.16;100.00
36726;BME280;44936;52.086;5.150;2022-11-20T06:31:02;101666.72;;;-2.22;100.00
36726;BME280;44936;52.086;5.150;2022-11-20T06:33:28;101709.25;;;-2.14;100.00
36726;BME280;44936;52.086;5.150;2022-11-20T06:35:58;101719.31;;;-2.17;100.00
36726;BME280;44936;52.086;5.150;2022-11-20T06:38:26;101711.03;;;-2.13;100.00
36726;BME280;44936;52.086;5.150;2022-11-20T06:40:52;101683.81;;;-2.22;100.00
36726;BME280;44936;52.086;5.150;2022-11-20T06:43:19;101728.19;;;-2.00;100.00
36726;BME280;44936;52.086;5.150;2022-11-20T06:45:54;101691.47;;;-2.11;100.00
36726;BME280;44936;52.086;5.150;2022-11-20T06:48:21;101700.19;;;-2.09;100.00
36726;BME280;44936;52.086;5.150;2022-11-20T06:50:47;101706.84;;;-1.86;100.00
36726;BME280;44936;52.086;5.150;2022-11-20T06:53:12;101632.84;;;-2.16;100.00
36726;BME280;44936;52.086;5.150;2022-11-20T06:55:44;101604.88;;;-2.12;100.00
36726;BME280;44936;52.086;5.150;2022-11-20T06:58:11;101669.75;;;-1.89;100.00
36726;BME280;44936;52.086;5.150;2022-11-20T07:00:36;101630.34;;;-2.15;100.00
36726;BME280;44936;52.086;5.150;2022-11-20T07:03:06;101589.53;;;-2.23;100.00
36726;BME280;44936;52.086;5.150;2022-11-20T07:05:35;101587.66;;;-2.13;100.00
36726;BME280;44936;52.086;5.150;2022-11-20T07:08:04;101591.09;;;-2.12;100.00
36726;BME280;44936;52.086;5.150;2022-11-20T07:10:32;101649.41;;;-1.73;100.00
36726;BME280;44936;52.086;5.150;2022-11-20T07:12:57;101589.78;;;-1.94;100.00
36726;BME280;44936;52.086;5.150;2022-11-20T07:15:24;101581.94;;;-1.95;100.00
36726;BME280;44936;52.086;5.150;2022-11-20T07:17:50;101558.50;;;-1.87;100.00
36726;BME280;44936;52.086;5.150;2022-11-20T07:20:16;101579.25;;;-1.71;100.00
36726;BME280;44936;52.086;5.150;2022-11-20T07:22:42;101601.63;;;-1.56;100.00
36726;BME280;44936;52.086;5.150;2022-11-20T07:25:09;101565.69;;;-1.55;100.00
36726;BME280;44936;52.086;5.150;2022-11-20T07:27:36;101590.19;;;-1.33;100.00
36726;BME280;44936;52.086;5.150;2022-11-20T07:30:05;101578.69;;;-1.25;100.00
36726;BME280;44936;52.086;5.150;2022-11-20T07:32:31;101552.78;;;-1.28;100.00
36726;BME280;44936;52.086;5.150;2022-11-20T07:34:56;101541.63;;;-1.42;100.00
36726;BME280;44936;52.086;5.150;2022-11-20T07:37:22;101518.66;;;-1.39;100.00
36726;BME280;44936;52.086;5.150;2022-11-20T07:39:47;101504.66;;;-1.57;100.00
36726;BME280;44936;52.086;5.150;2022-11-20T07:42:15;101548.44;;;-1.43;100.00
36726;BME280;44936;52.086;5.150;2022-11-20T07:44:40;101556.41;;;-1.25;100.00
36726;BME280;44936;52.086;5.150;2022-11-20T07:47:06;101570.47;;;-1.20;100.00
36726;BME280;44936;52.086;5.150;2022-11-20T07:49:31;101561.88;;;-1.33;100.00
36726;BME280;44936;52.086;5.150;2022-11-20T07:51:57;101579.88;;;-1.20;100.00
36726;BME280;44936;52.086;5.150;2022-11-20T07:54:22;101567.81;;;-1.21;100.00
36726;BME280;44936;52.086;5.150;2022-11-20T07:56:51;101577.97;;;-1.09;100.00
36726;BME280;44936;52.086;5.150;2022-11-20T07:59:19;101638.22;;;-0.93;100.00
36726;BME280;44936;52.086;5.150;2022-11-20T08:01:51;101639.44;;;-1.01;100.00
36726;BME280;44936;52.086;5.150;2022-11-20T08:04:18;101669.84;;;-0.67;100.00
36726;BME280;44936;52.086;5.150;2022-11-20T08:06:44;101691.59;;;-0.62;100.00
36726;BME280;44936;52.086;5.150;2022-11-20T08:09:10;101685.00;;;-0.72;100.00
36726;BME280;44936;52.086;5.150;2022-11-20T08:11:36;101681.50;;;-0.59;100.00
36726;BME280;44936;52.086;5.150;2022-11-20T08:14:22;101694.91;;;-0.65;100.00
36726;BME280;44936;52.086;5.150;2022-11-20T08:16:53;101690.03;;;-0.60;100.00
36726;BME280;44936;52.086;5.150;2022-11-20T08:19:19;101682.06;;;-0.50;100.00
36726;BME280;44936;52.086;5.150;2022-11-20T08:21:45;101694.75;;;-0.25;100.00
36726;BME280;44936;52.086;5.150;2022-11-20T08:24:11;101705.03;;;-0.40;100.00
36726;BME280;44936;52.086;5.150;2022-11-20T08:26:39;101765.81;;;-0.15;100.00
36726;BME280;44936;52.086;5.150;2022-11-20T08:29:05;101764.84;;;-0.03;100.00
36726;BME280;44936;52.086;5.150;2022-11-20T08:31:31;101761.22;;;-0.06;100.00
36726;BME280;44936;52.086;5.150;2022-11-20T08:33:57;101737.44;;;-0.15;100.00
36726;BME280;44936;52.086;5.150;2022-11-20T08:36:23;101725.44;;;-0.15;100.00
36726;BME280;44936;52.086;5.150;2022-11-20T08:38:50;101766.66;;;0.13;100.00
36726;BME280;44936;52.086;5.150;2022-11-20T08:41:16;101733.38;;;0.03;100.00
36726;BME280;44936;52.086;5.150;2022-11-20T08:44:02;101780.41;;;0.27;100.00
36726;BME280;44936;52.086;5.150;2022-11-20T08:46:38;101807.19;;;0.29;100.00
36726;BME280;44936;52.086;5.150;2022-11-20T08:49:06;101804.78;;;0.32;100.00
36726;BME280;44936;52.086;5.150;2022-11-20T08:51:32;101781.09;;;0.24;100.00
36726;BME280;44936;52.086;5.150;2022-11-20T08:53:58;101803.19;;;0.49;100.00
36726;BME280;44936;52.086;5.150;2022-11-20T08:56:24;101727.16;;;0.14;100.00
36726;BME280;44936;52.086;5.150;2022-11-20T08:58:52;101739.19;;;0.14;100.00
36726;BME280;44936;52.086;5.150;2022-11-20T09:01:34;101795.53;;;0.50;100.00
36726;BME280;44936;52.086;5.150;2022-11-20T09:04:02;101785.94;;;0.63;100.00
36726;BME280;44936;52.086;5.150;2022-11-20T09:06:28;101713.66;;;0.18;100.00
36726;BME280;44936;52.086;5.150;2022-11-20T09:08:54;101770.84;;;0.70;100.00
36726;BME280;44936;52.086;5.150;2022-11-20T09:11:20;101750.69;;;0.63;100.00
36726;BME280;44936;52.086;5.150;2022-11-20T09:13:48;101767.84;;;0.77;100.00
36726;BME280;44936;52.086;5.150;2022-11-20T09:16:14;101740.00;;;0.57;100.00
36726;BME280;44936;52.086;5.150;2022-11-20T09:18:39;101765.59;;;0.83;100.00
36726;BME280;44936;52.086;5.150;2022-11-20T09:21:08;101764.00;;;0.85;100.00
36726;BME280;44936;52.086;5.150;2022-11-20T09:23:36;101753.56;;;0.99;100.00
36726;BME280;44936;52.086;5.150;2022-11-20T09:26:09;101693.06;;;0.64;100.00
36726;BME280;44936;52.086;5.150;2022-11-20T09:28:37;101742.63;;;1.19;100.00
36726;BME280;44936;52.086;5.150;2022-11-20T09:31:25;101726.03;;;0.99;100.00
36726;BME280;44936;52.086;5.150;2022-11-20T09:33:51;101724.81;;;0.93;100.00
36726;BME280;44936;52.086;5.150;2022-11-20T09:36:17;101697.03;;;0.89;100.00
36726;BME280;44936;52.086;5.150;2022-11-20T09:38:46;101685.97;;;0.91;100.00
36726;BME280;44936;52.086;5.150;2022-11-20T09:44:55;101718.09;;;1.27;100.00
36726;BME280;44936;52.086;5.150;2022-11-20T09:48:06;101704.59;;;1.17;100.00
36726;BME280;44936;52.086;5.150;2022-11-20T09:50:20;101696.78;;;1.15;100.00
36726;BME280;44936;52.086;5.150;2022-11-20T09:55:42;101702.44;;;1.40;100.00
36726;BME280;44936;52.086;5.150;2022-11-20T09:58:31;101636.69;;;1.03;100.00
36726;BME280;44936;52.086;5.150;2022-11-20T10:01:09;101641.38;;;1.10;100.00
36726;BME280;44936;52.086;5.150;2022-11-20T10:08:49;101694.22;;;1.48;100.00
36726;BME280;44936;52.086;5.150;2022-11-20T10:11:33;101620.47;;;1.22;100.00
36726;BME280;44936;52.086;5.150;2022-11-20T10:22:36;101662.16;;;1.60;100.00
36726;BME280;44936;52.086;5.150;2022-11-20T10:25:18;101575.78;;;1.40;100.00
36726;BME280;44936;52.086;5.150;2022-11-20T10:28:23;101631.28;;;1.97;100.00
36726;BME280;44936;52.086;5.150;2022-11-20T10:31:07;101643.06;;;2.09;100.00
36726;BME280;44936;52.086;5.150;2022-11-20T10:33:42;101564.22;;;1.84;100.00
36726;BME280;44936;52.086;5.150;2022-11-20T10:36:26;101630.75;;;2.21;100.00
36726;BME280;44936;52.086;5.150;2022-11-20T10:39:15;101534.88;;;1.84;100.00
36726;BME280;44936;52.086;5.150;2022-11-20T10:41:45;101518.66;;;1.86;100.00
36726;BME280;44936;52.086;5.150;2022-11-20T10:44:20;101558.16;;;2.19;100.00
36726;BME280;44936;52.086;5.150;2022-11-20T10:47:17;101574.31;;;2.49;100.00
36726;BME280;44936;52.086;5.150;2022-11-20T10:49:54;101514.41;;;2.24;100.00
36726;BME280;44936;52.086;5.150;2022-11-20T10:55:38;101522.25;;;2.25;100.00
36726;BME280;44936;52.086;5.150;2022-11-20T10:58:14;101471.50;;;2.29;100.00
36726;BME280;44936;52.086;5.150;2022-11-20T11:00:42;101455.44;;;2.36;100.00
36726;BME280;44936;52.086;5.150;2022-11-20T11:03:27;101481.16;;;2.51;100.00
36726;BME280;44936;52.086;5.150;2022-11-20T11:06:02;101437.59;;;2.42;100.00
36726;BME280;44936;52.086;5.150;2022-11-20T11:08:38;101458.84;;;2.54;100.00
36726;BME280;44936;52.086;5.150;2022-11-20T11:11:18;101428.94;;;2.42;100.00
36726;BME280;44936;52.086;5.150;2022-11-20T11:13:47;101489.34;;;2.79;100.00
36726;BME280;44936;52.086;5.150;2022-11-20T11:16:22;101482.44;;;2.80;100.00
36726;BME280;44936;52.086;5.150;2022-11-20T11:19:03;101399.59;;;2.41;100.00
36726;BME280;44936;52.086;5.150;2022-11-20T11:21:29;101470.72;;;2.88;100.00
36726;BME280;44936;52.086;5.150;2022-11-20T11:24:27;101419.41;;;2.60;100.00
36726;BME280;44936;52.086;5.150;2022-11-20T11:27:14;101415.41;;;2.67;100.00
36726;BME280;44936;52.086;5.150;2022-11-20T11:29:42;101421.59;;;2.70;100.00
36726;BME280;44936;52.086;5.150;2022-11-20T11:32:18;101434.19;;;2.82;100.00
36726;BME280;44936;52.086;5.150;2022-11-20T11:35:11;101455.00;;;2.83;100.00
36726;BME280;44936;52.086;5.150;2022-11-20T11:38:23;101398.63;;;2.39;100.00
36726;BME280;44936;52.086;5.150;2022-11-20T12:12:05;101425.75;;;2.67;100.00
36726;BME280;44936;52.086;5.150;2022-11-20T12:14:46;101348.63;;;2.40;100.00
36726;BME280;44936;52.086;5.150;2022-11-20T12:17:18;101337.44;;;2.41;100.00
36726;BME280;44936;52.086;5.150;2022-11-20T12:19:45;101335.06;;;2.46;100.00
36726;BME280;44936;52.086;5.150;2022-11-20T12:25:30;101325.72;;;2.49;100.00
36726;BME280;44936;52.086;5.150;2022-11-20T12:31:32;101363.66;;;2.68;100.00
36726;BME280;44936;52.086;5.150;2022-11-20T12:34:11;101355.34;;;2.75;100.00
36726;BME280;44936;52.086;5.150;2022-11-20T12:36:57;101303.09;;;2.45;100.00
36726;BME280;44936;52.086;5.150;2022-11-20T12:39:49;101275.31;;;2.41;100.00
36726;BME280;44936;52.086;5.150;2022-11-20T12:48:42;101315.78;;;2.79;100.00
36726;BME280;44936;52.086;5.150;2022-11-20T13:00:07;101288.34;;;3.05;100.00
36726;BME280;44936;52.086;5.150;2022-11-20T13:08:39;101234.31;;;2.73;100.00
36726;BME280;44936;52.086;5.150;2022-11-20T13:14:03;101272.44;;;2.96;100.00
36726;BME280;44936;52.086;5.150;2022-11-20T13:19:02;101205.81;;;2.50;100.00
36726;BME280;44936;52.086;5.150;2022-11-20T13:21:40;101208.66;;;2.57;100.00
36726;BME280;44936;52.086;5.150;2022-11-20T13:24:24;101219.00;;;2.77;100.00
36726;BME280;44936;52.086;5.150;2022-11-20T13:29:47;101195.88;;;2.61;100.00
36726;BME280;44936;52.086;5.150;2022-11-20T13:36:01;101199.22;;;2.79;100.00
36726;BME280;44936;52.086;5.150;2022-11-20T13:38:27;101164.91;;;2.64;100.00
36726;BME280;44936;52.086;5.150;2022-11-20T13:40:58;101164.28;;;2.70;100.00
36726;BME280;44936;52.086;5.150;2022-11-20T13:46:04;101207.97;;;3.04;100.00
36726;BME280;44936;52.086;5.150;2022-11-20T13:48:32;101179.72;;;2.89;100.00
36726;BME280;44936;52.086;5.150;2022-11-20T14:02:11;101044.41;;;2.96;100.00
36726;BME280;44936;52.086;5.150;2022-11-20T14:04:51;101039.09;;;2.92;100.00
36726;BME280;44936;52.086;5.150;2022-11-20T14:07:22;101029.84;;;2.76;100.00
36726;BME280;44936;52.086;5.150;2022-11-20T14:09:52;101076.91;;;3.10;100.00
36726;BME280;44936;52.086;5.150;2022-11-20T14:12:43;101038.44;;;2.99;100.00
36726;BME280;44936;52.086;5.150;2022-11-20T14:15:30;101018.59;;;2.99;100.00
36726;BME280;44936;52.086;5.150;2022-11-20T14:18:10;100984.84;;;2.74;100.00
36726;BME280;44936;52.086;5.150;2022-11-20T14:20:45;101010.50;;;2.90;100.00
36726;BME280;44936;52.086;5.150;2022-11-20T14:23:30;101017.44;;;3.15;100.00
36726;BME280;44936;52.086;5.150;2022-11-20T14:26:03;101022.91;;;3.23;100.00
36726;BME280;44936;52.086;5.150;2022-11-20T14:28:54;101025.69;;;3.27;100.00
36726;BME280;44936;52.086;5.150;2022-11-20T14:31:26;100998.19;;;3.08;100.00
36726;BME280;44936;52.086;5.150;2022-11-20T14:33:56;100984.78;;;2.95;100.00
36726;BME280;44936;52.086;5.150;2022-11-20T14:36:31;100964.84;;;2.92;100.00
36726;BME280;44936;52.086;5.150;2022-11-20T14:39:11;101005.59;;;3.22;100.00
36726;BME280;44936;52.086;5.150;2022-11-20T14:41:50;100947.72;;;2.97;100.00
36726;BME280;44936;52.086;5.150;2022-11-20T14:44:16;100963.16;;;2.94;100.00
36726;BME280;44936;52.086;5.150;2022-11-20T14:46:44;100944.09;;;2.92;100.00
36726;BME280;44936;52.086;5.150;2022-11-20T14:49:19;100943.91;;;3.11;100.00
36726;BME280;44936;52.086;5.150;2022-11-20T14:51:45;100925.97;;;3.18;100.00
36726;BME280;44936;52.086;5.150;2022-11-20T14:54:19;100933.81;;;3.19;100.00
36726;BME280;44936;52.086;5.150;2022-11-20T14:56:57;100899.41;;;2.99;100.00
36726;BME280;44936;52.086;5.150;2022-11-20T14:59:33;100928.94;;;3.28;100.00
36726;BME280;44936;52.086;5.150;2022-11-20T15:02:11;100858.69;;;2.95;100.00
36726;BME280;44936;52.086;5.150;2022-11-20T15:04:56;100873.25;;;3.17;100.00
36726;BME280;44936;52.086;5.150;2022-11-20T15:10:19;100738.34;;;2.86;100.00
36726;BME280;44936;52.086;5.150;2022-11-20T15:12:52;100747.59;;;3.04;100.00
36726;BME280;44936;52.086;5.150;2022-11-20T15:18:13;100684.16;;;2.92;100.00
36726;BME280;44936;52.086;5.150;2022-11-20T15:20:41;100638.06;;;2.81;100.00
36726;BME280;44936;52.086;5.150;2022-11-20T15:23:15;100612.22;;;2.83;100.00
36726;BME280;44936;52.086;5.150;2022-11-20T15:25:49;100623.06;;;3.00;100.00
36726;BME280;44936;52.086;5.150;2022-11-20T15:28:45;100578.03;;;2.95;100.00
36726;BME280;44936;52.086;5.150;2022-11-20T15:31:14;100556.28;;;2.90;100.00
36726;BME280;44936;52.086;5.150;2022-11-20T15:33:39;100557.25;;;2.93;100.00
36726;BME280;44936;52.086;5.150;2022-11-20T15:36:14;100577.47;;;3.05;100.00
36726;BME280;44936;52.086;5.150;2022-11-20T15:38:40;100587.13;;;3.10;100.00
36726;BME280;44936;52.086;5.150;2022-11-20T15:41:08;100539.91;;;2.91;100.00
36726;BME280;44936;52.086;5.150;2022-11-20T15:43:41;100527.56;;;2.82;100.00
36726;BME280;44936;52.086;5.150;2022-11-20T15:46:13;100531.13;;;2.86;100.00
36726;BME280;44936;52.086;5.150;2022-11-20T15:48:44;100556.72;;;3.05;100.00
36726;BME280;44936;52.086;5.150;2022-11-20T15:53:40;100567.09;;;3.05;100.00
36726;BME280;44936;52.086;5.150;2022-11-20T15:56:11;100583.78;;;3.15;100.00
36726;BME280;44936;52.086;5.150;2022-11-20T15:58:37;100583.97;;;3.21;100.00
36726;BME280;44936;52.086;5.150;2022-11-20T16:01:02;100590.81;;;3.19;100.00
36726;BME280;44936;52.086;5.150;2022-11-20T16:03:30;100544.19;;;2.90;100.00
36726;BME280;44936;52.086;5.150;2022-11-20T16:05:56;100596.78;;;3.16;100.00
36726;BME280;44936;52.086;5.150;2022-11-20T16:08:22;100572.88;;;2.96;100.00
36726;BME280;44936;52.086;5.150;2022-11-20T16:10:47;100613.19;;;3.17;100.00
36726;BME280;44936;52.086;5.150;2022-11-20T16:13:16;100616.16;;;3.29;100.00
36726;BME280;44936;52.086;5.150;2022-11-20T16:16:07;100611.91;;;3.31;100.00
36726;BME280;44936;52.086;5.150;2022-11-20T16:18:38;100607.19;;;3.18;100.00
36726;BME280;44936;52.086;5.150;2022-11-20T16:21:11;100616.13;;;3.27;100.00
36726;BME280;44936;52.086;5.150;2022-11-20T16:23:41;100624.72;;;3.26;100.00
36726;BME280;44936;52.086;5.150;2022-11-20T16:26:15;100612.69;;;3.28;100.00
36726;BME280;44936;52.086;5.150;2022-11-20T16:28:42;100591.75;;;3.21;100.00
36726;BME280;44936;52.086;5.150;2022-11-20T16:31:12;100602.59;;;3.37;100.00
36726;BME280;44936;52.086;5.150;2022-11-20T16:33:38;100643.50;;;3.48;100.00
36726;BME280;44936;52.086;5.150;2022-11-20T16:36:11;100608.66;;;3.38;100.00
36726;BME280;44936;52.086;5.150;2022-11-20T16:38:45;100630.34;;;3.41;100.00
36726;BME280;44936;52.086;5.150;2022-11-20T16:41:14;100618.41;;;3.47;100.00
36726;BME280;44936;52.086;5.150;2022-11-20T16:44:07;100592.84;;;3.29;100.00
36726;BME280;44936;52.086;5.150;2022-11-20T16:46:38;100582.38;;;3.26;100.00
36726;BME280;44936;52.086;5.150;2022-11-20T16:49:13;100595.47;;;3.30;100.00
36726;BME280;44936;52.086;5.150;2022-11-20T16:51:42;100608.81;;;3.44;100.00
36726;BME280;44936;52.086;5.150;2022-11-20T16:54:09;100616.69;;;3.47;100.00
36726;BME280;44936;52.086;5.150;2022-11-20T16:56:37;100600.34;;;3.51;100.00
36726;BME280;44936;52.086;5.150;2022-11-20T16:59:04;100585.13;;;3.32;100.00
36726;BME280;44936;52.086;5.150;2022-11-20T17:01:30;100585.69;;;3.52;100.00
36726;BME280;44936;52.086;5.150;2022-11-20T17:06:48;100597.19;;;3.61;100.00
36726;BME280;44936;52.086;5.150;2022-11-20T17:09:13;100620.03;;;3.75;100.00
36726;BME280;44936;52.086;5.150;2022-11-20T17:11:42;100571.16;;;3.58;100.00
36726;BME280;44936;52.086;5.150;2022-11-20T17:14:09;100580.81;;;3.62;100.00
36726;BME280;44936;52.086;5.150;2022-11-20T17:16:37;100604.69;;;3.82;100.00
36726;BME280;44936;52.086;5.150;2022-11-20T17:19:03;100574.78;;;3.63;100.00
36726;BME280;44936;52.086;5.150;2022-11-20T17:21:33;100555.38;;;3.49;100.00